createdAt,value
2019-06-26T00:02:03.151Z,21.03
2019-06-26T00:04:35.872Z,18.83
2019-06-26T00:07:07.955Z,19.20
2019-06-26T00:09:39.858Z,23.53
2019-06-26T00:12:12.674Z,19.47
2019-06-26T00:14:46.228Z,21.17
2019-06-26T00:17:19.012Z,24.37
2019-06-26T00:19:52.186Z,20.97
2019-06-26T00:22:25.002Z,22.73
2019-06-26T00:24:57.779Z,22.07
2019-06-26T00:27:31.349Z,22.63
2019-06-26T00:30:03.318Z,25.60
2019-06-26T00:32:34.693Z,26.23
2019-06-26T00:35:07.698Z,25.53
2019-06-26T00:37:39.572Z,25.40
2019-06-26T00:40:12.855Z,26.13
2019-06-26T00:42:44.691Z,28.57
2019-06-26T00:45:18.262Z,27.83
2019-06-26T00:47:51.073Z,26.73
2019-06-26T00:50:23.988Z,25.57
2019-06-26T00:52:55.069Z,27.73
2019-06-26T00:55:27.560Z,26.50
2019-06-26T00:58:00.209Z,29.80
2019-06-26T01:00:36.823Z,31.90
2019-06-26T01:03:09.612Z,33.07
2019-06-26T01:05:43.342Z,34.20
2019-06-26T01:08:15.852Z,37.47
2019-06-26T01:10:48.579Z,34.47
2019-06-26T01:13:21.344Z,39.20
2019-06-26T01:15:55.519Z,37.43
2019-06-26T01:18:28.442Z,41.97
2019-06-26T01:21:01.656Z,45.60
2019-06-26T01:23:33.233Z,47.67
2019-06-26T01:26:07.269Z,46.13
2019-06-26T01:28:40.938Z,47.83
2019-06-26T01:31:15.156Z,43.73
2019-06-26T01:33:47.913Z,45.37
2019-06-26T01:36:22.380Z,43.57
2019-06-26T01:38:53.729Z,43.30
2019-06-26T01:41:25.590Z,43.10
2019-06-26T01:44:13.641Z,42.40
2019-06-26T01:46:31.849Z,40.93
2019-06-26T01:49:03.217Z,51.30
2019-06-26T01:51:35.258Z,47.47
2019-06-26T01:54:08.058Z,46.30
2019-06-26T01:56:40.590Z,59.33
2019-06-26T01:59:13.374Z,54.10
2019-06-26T02:01:44.862Z,62.10
2019-06-26T02:04:17.558Z,68.47
2019-06-26T02:06:49.082Z,65.40
2019-06-26T02:09:20.864Z,65.10
2019-06-26T02:11:54.853Z,68.10
2019-06-26T02:14:31.218Z,65.70
2019-06-26T02:17:02.449Z,70.53
2019-06-26T02:19:35.330Z,71.90
2019-06-26T02:22:08.670Z,70.77
2019-06-26T02:24:40.611Z,71.00
2019-06-26T02:27:12.610Z,74.50
2019-06-26T02:29:46.715Z,79.97
2019-06-26T02:32:18.576Z,75.20
2019-06-26T02:34:50.385Z,75.13
2019-06-26T02:37:23.298Z,74.03
2019-06-26T02:39:55.312Z,75.30
2019-06-26T02:42:26.749Z,77.27
2019-06-26T02:44:59.207Z,74.73
2019-06-26T02:47:31.827Z,75.03
2019-06-26T02:50:03.674Z,72.37
2019-06-26T02:52:35.866Z,70.10
2019-06-26T02:55:08.163Z,89.43
2019-06-26T02:57:41.233Z,72.43
2019-06-26T03:00:16.189Z,69.27
2019-06-26T03:02:48.171Z,65.67
2019-06-26T03:05:20.964Z,69.63
2019-06-26T03:07:54.698Z,70.13
2019-06-26T03:10:26.566Z,69.03
2019-06-26T03:12:59.356Z,67.53
2019-06-26T03:15:32.290Z,63.80
2019-06-26T03:18:04.246Z,64.97
2019-06-26T03:20:38.220Z,66.83
2019-06-26T03:23:10.938Z,61.23
2019-06-26T03:25:42.491Z,60.83
2019-06-26T03:28:15.140Z,60.73
2019-06-26T03:30:46.647Z,59.37
2019-06-26T03:33:19.440Z,59.90
2019-06-26T03:35:51.209Z,60.47
2019-06-26T03:38:24.118Z,60.20
2019-06-26T03:40:57.046Z,59.63
2019-06-26T03:43:28.724Z,59.20
2019-06-26T03:46:00.786Z,60.23
2019-06-26T03:48:32.634Z,58.90
2019-06-26T03:51:04.730Z,57.53
2019-06-26T03:53:36.288Z,54.33
2019-06-26T03:56:08.670Z,56.57
2019-06-26T03:58:40.411Z,60.43
2019-06-26T04:01:12.908Z,60.30
2019-06-26T04:03:44.697Z,61.47
2019-06-26T04:06:17.710Z,56.77
2019-06-26T04:08:50.589Z,57.07
2019-06-26T04:11:21.741Z,58.20
2019-06-26T04:13:53.292Z,52.73
2019-06-26T04:16:25.987Z,55.90
2019-06-26T04:18:57.867Z,55.20
2019-06-26T04:21:29.568Z,54.70
2019-06-26T04:24:02.460Z,58.07
2019-06-26T04:26:35.349Z,55.67
2019-06-26T04:29:09.009Z,54.87
2019-06-26T04:31:40.855Z,57.67
2019-06-26T04:34:13.607Z,57.77
2019-06-26T04:36:45.133Z,60.10
2019-06-26T04:39:19.292Z,59.83
2019-06-26T04:41:53.483Z,59.87
2019-06-26T04:44:27.884Z,60.77
2019-06-26T04:47:00.462Z,58.00
2019-06-26T04:49:33.238Z,56.27
2019-06-26T04:52:05.336Z,63.67
2019-06-26T04:54:37.459Z,64.87
2019-06-26T04:57:08.447Z,73.07
2019-06-26T04:59:39.905Z,67.37
2019-06-26T05:02:15.568Z,68.80
2019-06-26T05:04:48.493Z,68.00
2019-06-26T05:07:20.998Z,70.53
2019-06-26T05:09:57.079Z,66.40
2019-06-26T05:12:29.557Z,64.33
2019-06-26T05:15:01.976Z,69.20
2019-06-26T05:17:33.518Z,61.93
2019-06-26T05:20:09.752Z,66.10
2019-06-26T05:22:42.687Z,67.53
2019-06-26T05:25:15.500Z,71.53
2019-06-26T05:27:47.681Z,69.13
2019-06-26T05:30:19.925Z,70.70
2019-06-26T05:32:51.834Z,70.93
2019-06-26T05:35:25.925Z,70.97
2019-06-26T05:38:01.282Z,71.27
2019-06-26T05:40:33.780Z,70.23
2019-06-26T05:43:05.020Z,72.50
2019-06-26T05:45:36.725Z,75.57
2019-06-26T05:48:08.450Z,74.57
2019-06-26T05:50:41.263Z,75.17
2019-06-26T05:53:13.998Z,77.87
2019-06-26T05:55:45.658Z,76.17
2019-06-26T05:58:16.336Z,78.23
2019-06-26T06:00:48.749Z,80.83
2019-06-26T06:03:21.565Z,76.13
2019-06-26T06:05:54.426Z,76.63
2019-06-26T06:08:28.939Z,82.43
2019-06-26T06:11:00.809Z,75.63
2019-06-26T06:13:34.208Z,79.93
2019-06-26T06:16:07.028Z,77.70
2019-06-26T06:18:39.761Z,78.10
2019-06-26T06:21:13.821Z,78.53
2019-06-26T06:23:45.648Z,73.53
2019-06-26T06:26:18.490Z,80.77
2019-06-26T06:28:51.408Z,83.37
2019-06-26T06:31:24.202Z,79.00
2019-06-26T06:33:56.059Z,82.33
2019-06-26T06:36:27.963Z,79.03
2019-06-26T06:39:02.008Z,78.63
2019-06-26T06:41:34.828Z,80.43
2019-06-26T06:44:06.812Z,79.07
2019-06-26T06:46:38.678Z,84.80
2019-06-26T06:49:10.737Z,77.90
2019-06-26T06:51:42.436Z,79.37
2019-06-26T06:54:13.448Z,86.20
2019-06-26T06:56:45.842Z,88.03
2019-06-26T06:59:18.534Z,89.20
2019-06-26T07:01:50.381Z,90.63
2019-06-26T07:04:24.877Z,91.23
2019-06-26T07:06:58.825Z,88.47
2019-06-26T07:09:30.798Z,87.10
2019-06-26T07:12:02.672Z,87.80
2019-06-26T07:14:34.229Z,89.90
2019-06-26T07:17:19.971Z,83.80
2019-06-26T07:19:40.153Z,90.50
2019-06-26T07:22:11.909Z,90.80
2019-06-26T07:24:43.484Z,88.97
2019-06-26T07:27:14.414Z,86.57
2019-06-26T07:29:47.202Z,89.43
2019-06-26T07:32:19.988Z,87.20
2019-06-26T07:34:52.518Z,86.90
2019-06-26T07:37:25.224Z,86.73
2019-06-26T07:40:01.492Z,88.10
2019-06-26T07:42:31.874Z,89.43
2019-06-26T07:45:05.258Z,87.90
2019-06-26T07:47:43.809Z,83.17
2019-06-26T07:50:14.180Z,86.33
2019-06-26T07:52:46.648Z,87.23
2019-06-26T07:55:19.343Z,86.80
2019-06-26T07:57:53.903Z,89.80
2019-06-26T08:00:31.479Z,79.00
2019-06-26T08:03:04.470Z,84.93
2019-06-26T08:05:37.055Z,84.70
2019-06-26T08:08:11.214Z,84.90
2019-06-26T08:10:44.670Z,81.97
2019-06-26T08:13:17.456Z,85.40
2019-06-26T08:15:49.025Z,88.33
2019-06-26T08:18:20.806Z,82.03
2019-06-26T08:21:11.047Z,83.57
2019-06-26T08:23:26.899Z,75.60
2019-06-26T08:25:59.960Z,79.43
2019-06-26T08:28:31.916Z,77.53
2019-06-26T08:31:04.435Z,76.80
2019-06-26T08:33:35.731Z,73.73
2019-06-26T08:36:08.732Z,75.10
2019-06-26T08:38:41.926Z,76.00
2019-06-26T08:41:13.868Z,82.33
2019-06-26T08:43:47.495Z,73.13
2019-06-26T08:46:20.238Z,80.13
2019-06-26T08:48:52.340Z,72.77
2019-06-26T08:51:26.356Z,68.40
2019-06-26T08:53:59.183Z,69.77
2019-06-26T08:56:31.985Z,66.10
2019-06-26T08:59:03.840Z,60.33
2019-06-26T09:01:35.704Z,64.27
2019-06-26T09:04:08.854Z,64.37
2019-06-26T09:06:41.742Z,73.70
2019-06-26T09:09:16.459Z,77.57
2019-06-26T09:11:49.029Z,71.70
2019-06-26T09:14:20.794Z,65.90
2019-06-26T09:16:52.132Z,73.53
2019-06-26T09:19:24.004Z,70.97
2019-06-26T09:21:55.633Z,69.57
2019-06-26T09:24:28.495Z,63.73
2019-06-26T09:27:00.446Z,65.27
2019-06-26T09:29:32.423Z,73.33
2019-06-26T09:32:05.361Z,65.97
2019-06-26T09:34:38.580Z,68.17
2019-06-26T09:37:11.457Z,67.10
2019-06-26T09:39:43.326Z,66.70
2019-06-26T09:42:19.301Z,65.73
2019-06-26T09:44:48.551Z,69.07
2019-06-26T09:47:19.514Z,73.53
2019-06-26T09:49:52.383Z,64.93
2019-06-26T09:52:25.207Z,66.93
2019-06-26T09:54:55.933Z,70.73
2019-06-26T09:57:28.264Z,76.63
2019-06-26T10:00:01.353Z,78.03
2019-06-26T10:02:34.316Z,73.70
2019-06-26T10:05:08.988Z,71.10
2019-06-26T10:07:40.891Z,64.50
2019-06-26T10:10:14.444Z,70.83
2019-06-26T10:12:46.506Z,70.43
2019-06-26T10:15:18.716Z,64.60
2019-06-26T10:17:50.679Z,63.63
2019-06-26T10:20:22.664Z,61.70
2019-06-26T10:22:54.334Z,58.23
2019-06-26T10:25:27.116Z,66.03
2019-06-26T10:27:59.068Z,67.27
2019-06-26T10:30:31.969Z,70.83
2019-06-26T10:33:03.848Z,68.97
2019-06-26T10:35:35.820Z,66.37
2019-06-26T10:38:08.648Z,71.67
2019-06-26T10:40:40.184Z,72.63
2019-06-26T10:43:12.911Z,80.67
2019-06-26T10:45:46.528Z,73.90
2019-06-26T10:48:18.422Z,78.57
2019-06-26T10:50:58.240Z,63.77
2019-06-26T10:53:24.470Z,73.43
2019-06-26T10:55:57.084Z,73.90
2019-06-26T10:58:29.936Z,66.27
2019-06-26T11:01:04.327Z,67.27
2019-06-26T11:03:38.473Z,59.93
2019-06-26T11:06:10.377Z,68.37
2019-06-26T11:08:43.149Z,64.27
2019-06-26T11:11:15.060Z,68.53
2019-06-26T11:13:45.775Z,66.97
2019-06-26T11:16:17.620Z,63.80
2019-06-26T11:18:49.511Z,61.50
2019-06-26T11:21:23.280Z,59.90
2019-06-26T11:23:55.700Z,64.47
2019-06-26T11:26:27.208Z,58.27
2019-06-26T11:29:00.089Z,72.90
2019-06-26T11:31:31.046Z,57.47
2019-06-26T11:34:04.199Z,59.07
2019-06-26T11:36:36.134Z,59.57
2019-06-26T11:39:09.828Z,65.47
2019-06-26T11:41:42.797Z,52.93
2019-06-26T11:44:14.389Z,61.17
2019-06-26T11:46:45.568Z,55.23
2019-06-26T11:49:18.179Z,66.07
2019-06-26T11:51:49.735Z,60.03
2019-06-26T11:54:21.205Z,65.57
2019-06-26T11:56:54.739Z,60.70
2019-06-26T11:59:26.624Z,59.90
2019-06-26T12:01:58.554Z,61.00
2019-06-26T12:04:31.633Z,58.03
2019-06-26T12:07:03.675Z,63.17
2019-06-26T12:09:36.599Z,55.43
2019-06-26T12:12:09.464Z,54.67
2019-06-26T12:14:42.245Z,59.37
2019-06-26T12:17:14.146Z,55.23
2019-06-26T12:19:46.975Z,55.07
2019-06-26T12:22:19.680Z,56.73
2019-06-26T12:24:52.461Z,59.20
2019-06-26T12:27:25.386Z,62.47
2019-06-26T12:29:58.081Z,58.83
2019-06-26T12:32:30.056Z,56.13
2019-06-26T12:35:02.153Z,53.97
2019-06-26T12:37:38.108Z,50.17
2019-06-26T12:40:09.625Z,49.17
2019-06-26T12:42:44.233Z,42.20
2019-06-26T12:45:17.465Z,44.07
2019-06-26T12:47:49.370Z,41.73
2019-06-26T12:50:34.647Z,44.17
2019-06-26T12:52:57.375Z,48.90
2019-06-26T12:55:32.688Z,42.97
2019-06-26T12:58:12.958Z,34.37
2019-06-26T13:00:36.494Z,36.83
2019-06-26T13:03:09.251Z,35.73
2019-06-26T13:05:42.033Z,30.13
2019-06-26T13:08:14.932Z,25.13
2019-06-26T13:10:50.210Z,33.30
2019-06-26T13:13:22.217Z,22.57
2019-06-26T13:15:54.073Z,27.30
2019-06-26T13:18:27.016Z,27.70
2019-06-26T13:21:00.048Z,29.13
2019-06-26T13:23:32.062Z,28.67
2019-06-26T13:26:03.933Z,20.37
2019-06-26T13:28:35.860Z,19.93
2019-06-26T13:31:07.807Z,22.27
2019-06-26T13:33:42.055Z,24.70
2019-06-26T13:36:15.374Z,22.57
2019-06-26T13:38:49.982Z,27.57
2019-06-26T13:41:21.849Z,25.37
2019-06-26T13:43:54.632Z,26.67
2019-06-26T13:46:26.539Z,22.43
2019-06-26T13:48:59.506Z,25.80
2019-06-26T13:51:32.550Z,26.87
2019-06-26T13:54:07.213Z,26.57
2019-06-26T13:56:40.167Z,22.80
2019-06-26T13:59:14.195Z,22.77
2019-06-26T14:01:47.012Z,22.97
2019-06-26T14:04:19.942Z,24.13
2019-06-26T14:06:51.986Z,21.43
2019-06-26T14:09:24.063Z,25.07
2019-06-26T14:11:56.880Z,23.43
2019-06-26T14:14:41.113Z,20.83
2019-06-26T14:17:02.302Z,23.53
2019-06-26T14:19:35.124Z,24.87
2019-06-26T14:22:07.938Z,23.63
2019-06-26T14:24:42.299Z,21.93
2019-06-26T14:27:15.023Z,24.50
2019-06-26T14:29:46.858Z,25.47
2019-06-26T14:32:19.876Z,22.27
2019-06-26T14:34:51.744Z,21.27
2019-06-26T14:37:23.642Z,21.20
2019-06-26T14:39:55.625Z,18.57
2019-06-26T14:42:28.393Z,18.70
2019-06-26T14:45:00.372Z,19.73
2019-06-26T14:47:35.529Z,18.17
2019-06-26T14:50:09.204Z,17.43
2019-06-26T14:52:45.688Z,17.87
2019-06-26T14:55:18.667Z,14.30
2019-06-26T14:57:50.564Z,14.40
2019-06-26T15:00:22.645Z,15.07
2019-06-26T15:02:55.904Z,17.17
2019-06-26T15:05:28.821Z,15.27
2019-06-26T15:08:01.732Z,14.10
2019-06-26T15:10:34.637Z,15.30
2019-06-26T15:13:07.404Z,16.50
2019-06-26T15:15:38.492Z,15.97
2019-06-26T15:18:12.155Z,14.17
2019-06-26T15:20:44.180Z,15.63
2019-06-26T15:23:20.392Z,14.73
2019-06-26T15:25:53.543Z,14.87
2019-06-26T15:28:26.373Z,16.23
2019-06-26T15:30:58.360Z,17.60
2019-06-26T15:33:30.412Z,14.87
2019-06-26T15:36:03.305Z,12.20
2019-06-26T15:38:36.147Z,12.57
2019-06-26T15:41:08.080Z,13.03
2019-06-26T15:43:41.034Z,12.73
2019-06-26T15:46:15.056Z,13.43
2019-06-26T15:48:50.411Z,14.90
2019-06-26T15:51:23.722Z,15.07
2019-06-26T15:53:54.354Z,15.70
2019-06-26T15:56:27.063Z,13.60
2019-06-26T15:58:59.967Z,13.37
2019-06-26T16:01:34.945Z,11.03
2019-06-26T16:04:07.784Z,13.33
2019-06-26T16:06:39.318Z,20.43
2019-06-26T16:09:12.239Z,16.23
2019-06-26T16:11:45.146Z,10.10
2019-06-26T16:14:17.975Z,10.90
2019-06-26T16:16:52.525Z,10.00
2019-06-26T16:19:25.963Z,11.90
2019-06-26T16:21:59.297Z,9.60
2019-06-26T16:24:32.096Z,10.30
2019-06-26T16:27:05.082Z,10.70
2019-06-26T16:29:36.786Z,11.37
2019-06-26T16:32:08.679Z,10.43
2019-06-26T16:34:40.621Z,12.50
2019-06-26T16:37:12.465Z,11.37
2019-06-26T16:39:46.640Z,10.33
2019-06-26T16:42:19.471Z,11.87
2019-06-26T16:44:54.070Z,14.00
2019-06-26T16:47:27.785Z,11.20
2019-06-26T16:49:59.794Z,13.63
2019-06-26T16:52:47.975Z,11.23
2019-06-26T16:55:07.444Z,10.30
2019-06-26T16:57:40.268Z,10.10
2019-06-26T17:00:13.933Z,13.23
2019-06-26T17:02:46.443Z,11.53
2019-06-26T17:05:18.711Z,11.17
2019-06-26T17:07:50.584Z,12.17
2019-06-26T17:10:23.834Z,14.53
2019-06-26T17:12:56.629Z,11.10
2019-06-26T17:15:30.621Z,12.27
2019-06-26T17:18:08.828Z,11.63
2019-06-26T17:20:41.601Z,10.57
2019-06-26T17:23:13.505Z,10.90
2019-06-26T17:25:49.590Z,11.33
2019-06-26T17:28:23.784Z,11.03
2019-06-26T17:30:58.286Z,10.50
2019-06-26T17:33:31.414Z,13.00
2019-06-26T17:36:03.257Z,9.80
2019-06-26T17:38:37.586Z,18.20
2019-06-26T17:41:12.172Z,12.13
2019-06-26T17:43:45.015Z,10.10
2019-06-26T17:46:17.865Z,13.27
2019-06-26T17:48:52.832Z,12.97
2019-06-26T17:51:25.707Z,12.40
2019-06-26T17:53:57.590Z,10.80
2019-06-26T17:56:28.969Z,13.20
2019-06-26T17:59:00.845Z,15.47
2019-06-26T18:01:35.025Z,10.00
2019-06-26T18:04:08.338Z,10.70
2019-06-26T18:06:42.861Z,12.17
2019-06-26T18:09:14.792Z,11.03
2019-06-26T18:11:47.532Z,11.20
2019-06-26T18:14:20.349Z,11.23
2019-06-26T18:16:52.410Z,10.00
2019-06-26T18:19:24.349Z,13.30
2019-06-26T18:21:56.289Z,11.17
2019-06-26T18:24:29.257Z,11.93
2019-06-26T18:27:01.194Z,13.80
2019-06-26T18:29:33.833Z,8.77
2019-06-26T18:32:05.573Z,11.27
2019-06-26T18:34:37.441Z,10.73
2019-06-26T18:37:11.352Z,9.73
2019-06-26T18:39:44.713Z,11.17
2019-06-26T18:42:17.340Z,11.37
2019-06-26T18:44:50.237Z,11.37
2019-06-26T18:47:23.027Z,11.60
2019-06-26T18:49:56.914Z,10.53
2019-06-26T18:52:28.775Z,10.87
2019-06-26T18:55:01.991Z,11.37
2019-06-26T18:57:33.984Z,10.83
2019-06-26T19:00:07.682Z,8.90
2019-06-26T19:02:42.211Z,7.37
2019-06-26T19:05:14.295Z,8.63
2019-06-26T19:07:46.124Z,8.03
2019-06-26T19:10:19.041Z,7.77
2019-06-26T19:12:53.654Z,9.43
2019-06-26T19:15:26.459Z,12.03
2019-06-26T19:17:58.035Z,10.73
2019-06-26T19:20:33.002Z,10.57
2019-06-26T19:23:03.442Z,10.37
2019-06-26T19:25:35.398Z,10.90
2019-06-26T19:28:07.240Z,8.87
2019-06-26T19:30:39.144Z,9.07
2019-06-26T19:33:12.133Z,8.17
2019-06-26T19:35:46.627Z,11.07
2019-06-26T19:38:19.543Z,7.07
2019-06-26T19:40:51.092Z,8.00
2019-06-26T19:43:23.799Z,6.27
2019-06-26T19:45:56.299Z,8.87
2019-06-26T19:48:28.660Z,8.13
2019-06-26T19:51:01.681Z,9.17
2019-06-26T19:53:33.578Z,9.90
2019-06-26T19:56:08.080Z,8.73
2019-06-26T19:58:39.569Z,7.40
2019-06-26T20:01:12.304Z,9.10
2019-06-26T20:03:45.085Z,9.10
2019-06-26T20:06:17.071Z,8.97
2019-06-26T20:08:56.122Z,9.60
2019-06-26T20:11:22.944Z,9.13
2019-06-26T20:13:54.898Z,8.90
2019-06-26T20:16:26.433Z,8.83
2019-06-26T20:18:59.037Z,8.10
2019-06-26T20:21:31.939Z,7.13
2019-06-26T20:24:04.741Z,7.70
2019-06-26T20:26:36.308Z,9.77
2019-06-26T20:29:09.647Z,9.27
2019-06-26T20:31:42.149Z,8.87
2019-06-26T20:34:16.556Z,7.80
2019-06-26T20:36:49.401Z,11.70
2019-06-26T20:39:22.238Z,8.23
2019-06-26T20:41:55.562Z,6.43
2019-06-26T20:44:28.482Z,7.33
2019-06-26T20:47:02.648Z,8.47
2019-06-26T20:49:49.069Z,6.60
2019-06-26T20:52:10.242Z,7.90
2019-06-26T20:54:42.209Z,8.97
2019-06-26T20:57:15.115Z,11.83
2019-06-26T20:59:46.770Z,9.20
2019-06-26T21:02:21.748Z,9.23
2019-06-26T21:04:52.618Z,9.73
2019-06-26T21:07:24.597Z,9.37
2019-06-26T21:09:58.363Z,8.30
2019-06-26T21:12:30.344Z,13.13
2019-06-26T21:15:03.189Z,9.07
2019-06-26T21:17:34.279Z,8.87
2019-06-26T21:20:07.377Z,13.57
2019-06-26T21:22:40.077Z,9.17
2019-06-26T21:25:18.874Z,10.13
2019-06-26T21:27:44.661Z,7.37
2019-06-26T21:30:17.244Z,8.40
2019-06-26T21:32:49.488Z,11.70
2019-06-26T21:35:22.791Z,9.77
2019-06-26T21:37:54.680Z,11.40
2019-06-26T21:40:26.414Z,11.00
2019-06-26T21:42:58.161Z,8.07
2019-06-26T21:45:31.259Z,10.03
2019-06-26T21:48:03.765Z,10.17
2019-06-26T21:50:35.620Z,10.70
2019-06-26T21:53:09.310Z,11.43
2019-06-26T21:55:41.661Z,10.83
2019-06-26T21:58:13.128Z,9.03
2019-06-26T22:00:46.118Z,10.77
2019-06-26T22:03:19.370Z,9.50
2019-06-26T22:05:52.033Z,8.53
2019-06-26T22:08:26.656Z,11.40
2019-06-26T22:10:59.475Z,8.87
2019-06-26T22:13:32.078Z,7.23
2019-06-26T22:16:05.305Z,9.47
2019-06-26T22:18:39.429Z,7.10
2019-06-26T22:21:12.124Z,10.57
2019-06-26T22:23:44.645Z,11.27
2019-06-26T22:26:17.290Z,8.20
2019-06-26T22:28:49.652Z,8.63
2019-06-26T22:31:22.034Z,8.33
2019-06-26T22:33:53.887Z,8.67
2019-06-26T22:36:51.919Z,7.43
2019-06-26T22:39:21.963Z,9.80
2019-06-26T22:41:54.728Z,7.10
2019-06-26T22:44:26.231Z,6.87
2019-06-26T22:46:58.107Z,11.30
2019-06-26T22:49:29.942Z,9.83
2019-06-26T22:52:01.529Z,5.77
2019-06-26T22:54:33.913Z,9.80
2019-06-26T22:57:05.379Z,6.73
2019-06-26T22:59:37.769Z,8.47
2019-06-26T23:02:09.510Z,7.33
2019-06-26T23:04:42.554Z,7.70
2019-06-26T23:07:15.423Z,8.13
2019-06-26T23:09:47.310Z,7.67
2019-06-26T23:12:19.929Z,10.13
2019-06-26T23:14:52.624Z,10.03
2019-06-26T23:17:25.831Z,8.77
2019-06-26T23:19:58.654Z,11.63
2019-06-26T23:22:31.047Z,13.00
2019-06-26T23:25:00.973Z,11.27
2019-06-26T23:27:33.385Z,7.43
2019-06-26T23:30:10.456Z,13.03
2019-06-26T23:32:42.369Z,10.17
2019-06-26T23:35:14.518Z,8.67
2019-06-26T23:37:46.941Z,9.27
2019-06-26T23:40:19.537Z,11.50
2019-06-26T23:42:51.285Z,11.03
2019-06-26T23:45:25.785Z,11.67
2019-06-26T23:47:58.305Z,10.13
2019-06-26T23:50:30.694Z,13.00
2019-06-26T23:53:04.594Z,10.97
2019-06-26T23:55:36.505Z,12.90
2019-06-26T23:58:08.437Z,9.30
